Time;durP1;ratioP1;P1;durP2;ratioP2;P2;SDS_P1;SDS_P2;PMS_P1;PMS_P2;Temp;Humidity;BMP_temperature;BMP_pressure;BME280_temperature;BME280_humidity;BME280_pressure;Samples;Min_cycle;Max_cycle;Signal;HPM_P1;HPM_P2
2021/11/06 00:01:24;;;;;;;6.00;2.90;;;;;;;10.31;79.00;98046.45;116915;1177;69259;-65
2021/11/06 00:03:54;;;;;;;4.50;2.90;;;;;;;10.29;79.03;98050.30;116807;1177;58788;-65
2021/11/06 00:06:23;;;;;;;13.70;6.50;;;;;;;10.29;78.58;98055.34;116827;1176;58740;-65
2021/11/06 00:08:53;;;;;;;3.10;2.30;;;;;;;10.20;79.75;98063.30;116943;1177;70492;-65
2021/11/06 00:11:23;;;;;;;3.10;2.10;;;;;;;10.12;80.51;98067.77;116873;1177;68445;-64
2021/11/06 00:13:56;;;;;;;2.30;1.50;;;;;;;10.10;79.89;98070.90;117206;1177;68042;-64
2021/11/06 00:16:25;;;;;;;1.70;1.40;;;;;;;10.12;78.97;98077.21;117071;1177;58735;-65
2021/11/06 00:18:55;;;;;;;2.30;1.50;;;;;;;10.14;79.05;98080.40;117133;1177;59116;-64
2021/11/06 00:21:25;;;;;;;2.10;1.60;;;;;;;10.14;79.54;98064.56;117108;1176;70093;-64
2021/11/06 00:23:54;;;;;;;2.90;2.00;;;;;;;10.15;78.98;98063.95;117186;1177;67774;-65
2021/11/06 00:26:23;;;;;;;5.70;2.50;;;;;;;10.14;79.24;98064.42;117092;1177;68412;-65
2021/11/06 00:28:53;;;;;;;3.10;2.00;;;;;;;10.14;79.06;98056.55;117057;1176;58755;-65
2021/11/06 00:31:22;;;;;;;4.10;2.40;;;;;;;10.10;80.50;98059.73;116902;1176;58742;-65
2021/11/06 00:33:52;;;;;;;2.60;1.90;;;;;;;10.11;79.65;98066.48;116892;1177;70606;-64
2021/11/06 00:36:24;;;;;;;2.10;1.80;;;;;;;10.13;78.85;98055.92;116758;1179;68556;-64
2021/11/06 00:38:53;;;;;;;4.80;2.10;;;;;;;10.12;79.15;98050.20;116806;1180;69274;-64
2021/11/06 00:41:23;;;;;;;3.60;2.40;;;;;;;10.09;79.69;98054.77;116890;1177;58710;-65
2021/11/06 00:43:57;;;;;;;6.30;3.50;;;;;;;10.05;79.62;98060.90;116774;1180;58737;-64
2021/11/06 00:46:26;;;;;;;4.20;2.00;;;;;;;10.08;78.79;98071.20;116844;1177;69793;-64
2021/11/06 00:48:57;;;;;;;3.90;2.60;;;;;;;10.09;79.14;98081.77;116887;1177;68243;-64
2021/11/06 00:51:26;;;;;;;;;;;;;;;10.06;79.20;98093.59;116842;1177;69287;-64
2021/11/06 00:53:56;;;;;;;2.10;1.30;;;;;;;10.03;78.75;98091.34;116746;1179;58763;-64
2021/11/06 00:56:25;;;;;;;3.60;2.10;;;;;;;10.05;78.27;98084.30;116870;1177;58715;-63
2021/11/06 00:58:55;;;;;;;2.50;1.90;;;;;;;10.05;78.30;98083.36;116899;1177;69803;-63
2021/11/06 01:01:24;;;;;;;3.70;2.60;;;;;;;10.07;78.16;98082.77;116791;1178;67645;-64
2021/11/06 01:03:54;;;;;;;3.20;2.10;;;;;;;10.02;79.37;98081.34;116878;1177;68507;-63
2021/11/06 01:06:24;;;;;;;3.90;2.70;;;;;;;10.01;78.40;98085.52;116883;1177;58801;-63
2021/11/06 01:08:53;;;;;;;3.70;2.10;;;;;;;10.01;78.83;98084.68;116927;1177;58752;-65
2021/11/06 01:11:24;;;;;;;;;;;;;;;10.00;78.43;98084.38;116895;1177;69637;-64
2021/11/06 01:13:53;;;;;;;4.10;2.90;;;;;;;9.94;80.56;98092.06;116911;1177;67773;-64
2021/11/06 01:16:23;;;;;;;5.60;3.30;;;;;;;9.84;81.85;98094.77;116878;1177;68495;-63
2021/11/06 01:18:52;;;;;;;5.40;3.20;;;;;;;9.84;80.75;98090.25;116864;1177;58752;-65
2021/11/06 01:21:22;;;;;;;3.20;2.40;;;;;;;9.78;81.06;98089.68;116900;1177;58716;-64
2021/11/06 01:23:56;;;;;;;4.30;3.10;;;;;;;9.83;80.04;98093.92;116863;1177;69903;-63
2021/11/06 01:26:26;;;;;;;2.90;2.00;;;;;;;9.85;79.69;98099.25;116786;1174;68572;-63
2021/11/06 01:28:56;;;;;;;4.90;2.40;;;;;;;9.86;79.30;98105.77;116789;1177;69269;-63
2021/11/06 01:31:27;;;;;;;3.60;2.50;;;;;;;9.87;79.38;98101.56;116874;1177;58719;-64
2021/11/06 01:33:57;;;;;;;5.30;3.30;;;;;;;9.87;79.24;98104.83;116939;1177;58717;-64
2021/11/06 01:36:26;;;;;;;;;;;;;;;9.87;80.15;98109.17;117034;1177;69127;-63
2021/11/06 01:38:56;;;;;;;4.30;3.20;;;;;;;9.89;79.17;98119.33;116885;1177;68373;-63
2021/11/06 01:41:26;;;;;;;4.80;3.30;;;;;;;9.91;79.43;98129.00;116876;1177;68907;-63
2021/11/06 01:43:57;;;;;;;3.20;2.30;;;;;;;9.91;79.32;98138.89;116913;1177;58763;-64
2021/11/06 01:46:29;;;;;;;;;;;;;;;9.93;79.81;98156.69;116960;1174;58729;-63
2021/11/06 01:48:59;;;;;;;5.50;3.70;;;;;;;9.87;80.48;98165.79;117015;1176;69764;-63
2021/11/06 01:51:29;;;;;;;8.30;5.10;;;;;;;9.80;81.36;98164.25;116974;1177;68675;-63
2021/11/06 01:54:00;;;;;;;6.90;5.20;;;;;;;9.69;81.58;98173.59;117075;1177;69279;-64
2021/11/06 01:56:30;;;;;;;5.70;4.80;;;;;;;9.57;82.21;98178.65;116805;1179;58797;-64
2021/11/06 01:59:00;;;;;;;6.50;4.10;;;;;;;9.51;82.58;98180.53;117025;1176;58703;-64
2021/11/06 02:01:30;;;;;;;7.10;4.10;;;;;;;9.56;81.81;98186.33;117043;1177;69774;-65
2021/11/06 02:03:59;;;;;;;7.00;4.50;;;;;;;9.56;81.95;98195.55;116821;1177;67415;-63
2021/11/06 02:06:29;;;;;;;;;;;;;;;9.54;81.89;98191.49;116987;1176;69274;-63
2021/11/06 02:08:59;;;;;;;7.50;4.80;;;;;;;9.58;80.96;98189.02;116955;1176;58708;-64
2021/11/06 02:11:32;;;;;;;7.50;5.20;;;;;;;9.58;81.00;98185.84;117033;1176;58739;-63
2021/11/06 02:14:03;;;;;;;7.00;4.20;;;;;;;9.58;81.17;98182.38;116942;1177;70490;-64
2021/11/06 02:16:34;;;;;;;7.10;4.60;;;;;;;9.64;80.60;98180.33;116949;1176;67652;-64
2021/11/06 02:19:04;;;;;;;5.00;3.60;;;;;;;9.65;80.19;98184.44;117104;1177;68379;-64
2021/11/06 02:21:36;;;;;;;6.50;5.40;;;;;;;9.66;80.05;98183.12;117043;1177;58723;-64
2021/11/06 02:24:07;;;;;;;5.90;4.80;;;;;;;9.69;80.14;98181.97;117083;1177;58782;-65
2021/11/06 02:26:36;;;;;;;7.50;5.90;;;;;;;9.67;80.13;98179.42;117025;1176;70342;-64
2021/11/06 02:29:12;;;;;;;5.10;4.20;;;;;;;9.65;79.95;98176.06;116968;1177;67659;-65
2021/11/06 02:31:42;;;;;;;5.20;3.50;;;;;;;9.65;80.01;98171.20;116865;1177;68549;-65
2021/11/06 02:34:12;;;;;;;5.00;3.80;;;;;;;9.66;79.53;98173.06;116943;1176;58749;-64
2021/11/06 02:36:42;;;;;;;6.60;3.60;;;;;;;9.67;79.47;98184.17;116928;1177;59303;-65
2021/11/06 02:39:11;;;;;;;;;;;;;;;9.67;79.26;98185.88;117149;1176;70483;-65
2021/11/06 02:41:42;;;;;;;6.10;4.10;;;;;;;9.68;79.22;98180.79;117090;1177;68358;-63
2021/11/06 02:44:14;;;;;;;7.30;4.60;;;;;;;9.70;79.52;98181.55;116835;1176;68442;-63
2021/11/06 02:46:43;;;;;;;5.40;3.70;;;;;;;9.67;79.23;98171.64;116854;1177;58746;-64
2021/11/06 02:49:13;;;;;;;4.60;3.70;;;;;;;9.67;79.10;98170.41;117099;1176;58777;-64
2021/11/06 02:51:43;;;;;;;7.40;5.30;;;;;;;9.66;79.06;98172.21;117034;1177;71555;-63
2021/11/06 02:54:13;;;;;;;5.20;4.10;;;;;;;9.63;79.46;98174.25;116933;1177;68288;-63
2021/11/06 02:56:43;;;;;;;5.40;4.50;;;;;;;9.63;78.95;98181.59;116934;1177;69012;-64
2021/11/06 02:59:14;;;;;;;3.80;2.90;;;;;;;9.63;79.07;98179.48;117101;1176;58720;-63
2021/11/06 03:01:45;;;;;;;5.90;4.50;;;;;;;9.61;79.30;98173.36;116922;1177;58649;-63
2021/11/06 03:04:15;;;;;;;4.80;3.60;;;;;;;9.59;79.30;98179.88;117180;1177;69780;-64
2021/11/06 03:06:45;;;;;;;5.90;4.60;;;;;;;9.60;78.90;98187.65;117165;1177;68453;-66
2021/11/06 03:09:15;;;;;;;4.70;3.80;;;;;;;9.63;79.04;98189.40;116937;1177;69211;-64
2021/11/06 03:11:45;;;;;;;;;;;;;;;9.61;78.91;98186.59;117040;1176;58760;-64
2021/11/06 03:14:15;;;;;;;8.00;5.80;;;;;;;9.59;78.87;98186.35;117062;1176;58754;-65
2021/11/06 03:16:46;;;;;;;4.70;4.10;;;;;;;9.51;80.08;98191.34;117181;1177;70086;-63
2021/11/06 03:19:16;;;;;;;5.90;4.10;;;;;;;9.53;79.07;98196.44;117332;1177;66682;-64
2021/11/06 03:21:46;;;;;;;5.20;3.70;;;;;;;9.53;79.02;98194.52;117014;1177;69285;-64
2021/11/06 03:24:16;;;;;;;5.00;3.60;;;;;;;9.54;78.74;98206.67;117185;1177;58691;-64
2021/11/06 03:26:47;;;;;;;5.20;3.80;;;;;;;9.56;78.85;98217.84;117218;1176;58737;-64
2021/11/06 03:29:16;;;;;;;;;;;;;;;9.55;79.38;98223.66;117229;1177;70531;-63
2021/11/06 03:31:47;;;;;;;6.00;4.30;;;;;;;9.52;79.18;98225.36;117133;1168;68394;-64
2021/11/06 03:34:16;;;;;;;;;;;;;;;9.52;78.98;98220.32;117146;1177;69545;-63
2021/11/06 03:36:47;;;;;;;6.20;3.60;;;;;;;9.52;78.70;98219.44;117159;1176;58734;-64
2021/11/06 03:39:17;;;;;;;6.40;4.00;;;;;;;9.53;78.68;98212.64;117184;1168;58753;-64
2021/11/06 03:41:47;;;;;;;4.80;3.50;;;;;;;9.53;78.55;98209.64;117143;1177;70416;-63
2021/11/06 03:44:17;;;;;;;5.50;4.30;;;;;;;9.53;78.51;98212.42;117093;1176;67767;-64
2021/11/06 03:46:48;;;;;;;6.00;4.30;;;;;;;9.51;79.05;98221.42;117080;1177;68629;-63
2021/11/06 03:49:18;;;;;;;;;;;;;;;9.48;79.39;98224.73;116873;1177;58752;-64
2021/11/06 03:51:47;;;;;;;7.40;5.20;;;;;;;9.46;79.14;98225.19;117138;1174;59140;-64
2021/11/06 03:54:17;;;;;;;7.10;5.60;;;;;;;9.43;79.73;98230.71;117163;1176;70572;-64
2021/11/06 03:56:48;;;;;;;10.50;6.90;;;;;;;9.42;79.95;98230.61;116822;1179;68454;-64
2021/11/06 03:59:18;;;;;;;5.30;4.30;;;;;;;9.38;80.37;98229.11;117056;1177;68479;-63
2021/11/06 04:01:48;;;;;;;7.00;4.20;;;;;;;9.40;79.49;98228.66;117123;1177;58782;-64
2021/11/06 04:04:18;;;;;;;5.40;4.00;;;;;;;9.42;79.47;98235.84;117134;1176;58752;-64
2021/11/06 04:06:48;;;;;;;6.40;5.50;;;;;;;9.43;79.47;98252.29;116908;1177;69675;-64
2021/11/06 04:09:18;;;;;;;9.20;6.20;;;;;;;9.41;80.50;98260.94;117133;1177;68532;-64
2021/11/06 04:11:50;;;;;;;11.10;6.90;;;;;;;9.35;80.87;98270.12;117050;1177;68402;-64
2021/11/06 04:14:20;;;;;;;9.60;6.30;;;;;;;9.27;81.90;98272.83;117063;1175;58707;-64
2021/11/06 04:16:50;;;;;;;8.90;6.50;;;;;;;9.24;81.51;98273.88;117022;1177;58688;-66
2021/11/06 04:19:20;;;;;;;7.70;5.20;;;;;;;9.17;81.91;98277.18;117092;1176;70840;-65
2021/11/06 04:21:50;;;;;;;8.10;6.10;;;;;;;9.17;81.47;98275.60;117089;1177;67663;-64
2021/11/06 04:24:20;;;;;;;8.90;6.80;;;;;;;9.16;81.49;98272.89;117106;1177;68952;-64
2021/11/06 04:26:49;;;;;;;6.90;4.80;;;;;;;9.15;81.84;98271.40;117025;1170;58729;-64
2021/11/06 04:29:18;;;;;;;5.70;4.40;;;;;;;9.19;80.78;98271.50;117099;1177;58742;-65
2021/11/06 04:31:48;;;;;;;4.20;3.50;;;;;;;9.25;80.09;98272.45;117070;1177;70598;-64
2021/11/06 04:34:19;;;;;;;6.70;4.40;;;;;;;9.28;79.78;98273.16;116878;1176;67536;-64
2021/11/06 04:36:49;;;;;;;6.80;5.00;;;;;;;9.32;79.50;98271.55;116991;1177;69229;-65
2021/11/06 04:39:19;;;;;;;4.40;4.00;;;;;;;9.34;79.15;98271.42;117071;1177;58748;-65
2021/11/06 04:41:49;;;;;;;4.90;3.90;;;;;;;9.34;78.83;98274.70;116973;1177;58770;-65
2021/11/06 04:44:19;;;;;;;6.00;4.10;;;;;;;9.35;78.65;98271.38;116978;1177;70345;-65
2021/11/06 04:46:48;;;;;;;6.60;4.60;;;;;;;9.35;78.35;98267.19;117048;1177;67907;-64
2021/11/06 04:49:18;;;;;;;5.60;4.50;;;;;;;9.36;78.26;98269.71;117047;1177;69145;-64
2021/11/06 04:51:47;;;;;;;5.10;4.00;;;;;;;9.37;78.05;98268.45;117047;1176;59094;-65
2021/11/06 04:54:17;;;;;;;5.10;3.80;;;;;;;9.38;77.94;98273.12;117108;1176;58713;-65
2021/11/06 04:56:49;;;;;;;4.50;3.30;;;;;;;9.38;77.76;98275.38;117068;1177;70399;-63
2021/11/06 04:59:20;;;;;;;5.50;3.90;;;;;;;9.38;77.46;98276.94;117062;1167;68387;-64
2021/11/06 05:01:50;;;;;;;3.90;2.80;;;;;;;9.37;76.92;98285.18;116884;1177;69395;-65
2021/11/06 05:04:20;;;;;;;4.50;3.70;;;;;;;9.35;76.58;98288.04;117026;1177;58729;-66
2021/11/06 05:06:50;;;;;;;4.40;3.20;;;;;;;9.34;76.25;98287.80;117046;1168;58739;-65
2021/11/06 05:09:20;;;;;;;4.90;3.20;;;;;;;9.33;76.20;98285.23;117035;1176;69788;-65
2021/11/06 05:11:50;;;;;;;5.60;3.80;;;;;;;9.32;75.93;98293.64;117094;1177;68371;-65
2021/11/06 05:14:20;;;;;;;5.40;3.50;;;;;;;9.28;75.84;98304.41;117019;1176;69352;-61
2021/11/06 05:16:52;;;;;;;4.30;3.60;;;;;;;9.26;75.43;98309.59;116958;1176;58717;-63
2021/11/06 05:19:21;;;;;;;5.60;3.30;;;;;;;9.26;75.19;98319.20;116899;1177;58790;-64
2021/11/06 05:21:51;;;;;;;5.40;3.60;;;;;;;9.23;74.83;98316.75;116913;1177;70191;-64
2021/11/06 05:24:21;;;;;;;4.90;3.00;;;;;;;9.19;74.60;98311.88;116988;1176;67656;-63
2021/11/06 05:26:50;;;;;;;4.20;2.90;;;;;;;9.17;74.70;98303.81;116880;1177;68495;-64
2021/11/06 05:29:20;;;;;;;4.00;3.30;;;;;;;9.17;74.29;98307.62;117062;1177;58743;-64
2021/11/06 05:31:49;;;;;;;4.20;2.50;;;;;;;9.14;73.97;98307.76;117022;1176;58723;-65
2021/11/06 05:34:19;;;;;;;3.90;2.60;;;;;;;9.16;74.30;98318.61;116797;1177;70780;-64
2021/11/06 05:36:48;;;;;;;3.40;2.50;;;;;;;9.18;74.29;98317.30;116802;1177;68217;-64
2021/11/06 05:39:18;;;;;;;3.40;2.50;;;;;;;9.19;74.17;98321.24;117028;1177;67380;-66
2021/11/06 05:41:47;;;;;;;4.60;2.90;;;;;;;9.19;74.09;98335.31;117096;1177;58818;-64
2021/11/06 05:44:17;;;;;;;3.60;2.70;;;;;;;9.20;73.93;98343.48;117061;1176;58715;-64
2021/11/06 05:46:46;;;;;;;3.80;2.50;;;;;;;9.20;73.71;98350.96;117096;1177;70583;-62
2021/11/06 05:49:15;;;;;;;3.80;2.40;;;;;;;9.21;73.68;98350.75;117036;1177;68420;-62
2021/11/06 05:51:44;;;;;;;3.10;2.60;;;;;;;9.22;73.78;98357.80;116942;1176;69265;-65
2021/11/06 05:54:14;;;;;;;5.50;3.50;;;;;;;9.26;73.82;98362.33;116797;1176;58726;-66
2021/11/06 05:56:44;;;;;;;;;;;;;;;9.28;73.62;98368.13;116974;1177;58665;-65
2021/11/06 05:59:13;;;;;;;3.10;2.40;;;;;;;9.31;73.60;98372.66;117011;1177;70606;-65
2021/11/06 06:01:42;;;;;;;2.90;2.10;;;;;;;9.35;73.41;98373.68;116970;1177;68527;-63
2021/11/06 06:04:12;;;;;;;4.10;2.90;;;;;;;9.38;72.89;98376.29;116821;1177;69218;-64
2021/11/06 06:06:41;;;;;;;4.50;2.30;;;;;;;9.39;71.85;98381.11;116978;1176;58800;-65
2021/11/06 06:09:11;;;;;;;4.20;3.40;;;;;;;9.43;72.53;98388.02;117001;1176;58736;-64
2021/11/06 06:11:40;;;;;;;5.10;3.90;;;;;;;9.37;71.73;98389.56;117010;1177;70539;-62
2021/11/06 06:14:10;;;;;;;4.90;4.20;;;;;;;9.32;71.91;98391.73;116914;1177;69035;-65
2021/11/06 06:16:39;;;;;;;5.00;3.90;;;;;;;9.23;72.04;98393.96;116781;1177;69877;-65
2021/11/06 06:19:08;;;;;;;4.10;3.00;;;;;;;9.30;72.32;98397.94;116985;1177;58752;-66
2021/11/06 06:21:37;;;;;;;3.20;2.40;;;;;;;9.35;72.27;98390.85;116968;1177;58706;-66
2021/11/06 06:24:07;;;;;;;4.50;2.70;;;;;;;9.44;72.45;98392.85;117150;1177;71027;-64
2021/11/06 06:26:36;;;;;;;2.80;2.20;;;;;;;9.53;72.33;98402.98;117152;1177;69035;-64
2021/11/06 06:29:05;;;;;;;3.10;2.40;;;;;;;9.62;72.37;98410.67;117021;1177;68512;-64
2021/11/06 06:31:37;;;;;;;2.70;2.30;;;;;;;9.71;72.32;98415.23;117053;1177;58736;-65
2021/11/06 06:34:06;;;;;;;7.00;5.10;;;;;;;9.80;72.30;98412.36;116901;1177;58728;-64
2021/11/06 06:36:35;;;;;;;24.90;16.90;;;;;;;9.87;72.08;98420.11;116926;1177;70628;-64
2021/11/06 06:39:04;;;;;;;16.50;11.40;;;;;;;9.92;70.62;98418.30;116912;1177;67720;-65
2021/11/06 06:41:35;;;;;;;16.40;11.80;;;;;;;9.97;69.56;98418.91;116862;1177;69302;-65
2021/11/06 06:44:04;;;;;;;16.50;11.60;;;;;;;9.98;68.79;98418.83;116938;1177;58730;-64
2021/11/06 06:46:33;;;;;;;10.70;8.20;;;;;;;10.00;68.95;98413.32;116824;1177;58690;-65
2021/11/06 06:49:02;;;;;;;8.70;6.50;;;;;;;10.04;69.37;98404.09;116790;1177;70361;-64
2021/11/06 06:51:32;;;;;;;10.90;7.00;;;;;;;10.06;68.97;98400.63;116851;1177;68983;-64
2021/11/06 06:54:04;;;;;;;10.90;7.80;;;;;;;10.08;69.18;98407.53;116843;1177;69332;-63
2021/11/06 06:56:34;;;;;;;7.40;6.40;;;;;;;10.09;69.23;98414.95;116824;1177;58729;-63
2021/11/06 06:59:03;;;;;;;5.90;4.50;;;;;;;10.10;69.49;98420.10;116891;1178;58721;-62
2021/11/06 07:01:33;;;;;;;5.30;3.80;;;;;;;10.09;68.35;98420.17;116835;1177;71120;-65
2021/11/06 07:04:03;;;;;;;5.50;4.10;;;;;;;10.05;67.66;98414.13;116690;1177;67905;-64
2021/11/06 07:06:31;;;;;;;4.80;3.80;;;;;;;9.93;67.71;98421.36;116826;1177;68546;-63
2021/11/06 07:09:01;;;;;;;3.50;3.00;;;;;;;9.94;68.62;98433.85;116846;1178;58730;-65
2021/11/06 07:11:30;;;;;;;3.30;2.80;;;;;;;9.96;68.72;98440.54;116933;1177;58761;-65
2021/11/06 07:13:59;;;;;;;3.00;2.50;;;;;;;9.96;68.52;98436.37;116909;1177;70934;-63
2021/11/06 07:16:29;;;;;;;2.40;1.90;;;;;;;9.97;68.71;98430.02;116962;1177;67642;-65
2021/11/06 07:18:58;;;;;;;2.10;1.70;;;;;;;9.99;68.74;98429.96;116883;1177;69163;-65
2021/11/06 07:21:27;;;;;;;2.90;2.30;;;;;;;10.01;68.84;98434.20;116896;1177;58701;-63
2021/11/06 07:23:58;;;;;;;8.40;4.00;;;;;;;9.98;66.72;98434.37;117093;1176;58729;-65
2021/11/06 07:26:28;;;;;;;7.80;4.40;;;;;;;9.94;66.16;98426.36;116961;1177;68796;-65
2021/11/06 07:28:57;;;;;;;6.60;4.70;;;;;;;9.95;66.91;98426.14;116984;1177;68191;-65
2021/11/06 07:31:27;;;;;;;5.60;3.30;;;;;;;9.91;66.80;98434.71;116949;1174;69344;-65
2021/11/06 07:33:56;;;;;;;6.90;3.60;;;;;;;9.93;67.54;98439.80;116942;1177;58739;-65
2021/11/06 07:36:26;;;;;;;11.00;4.40;;;;;;;9.95;67.76;98434.67;116923;1176;58735;-65
2021/11/06 07:38:55;;;;;;;7.90;4.00;;;;;;;9.98;67.81;98434.39;117078;1177;69782;-65
2021/11/06 07:41:24;;;;;;;4.10;3.10;;;;;;;10.01;67.69;98440.83;116939;1177;67708;-65
2021/11/06 07:43:54;;;;;;;7.70;5.30;;;;;;;10.01;67.61;98433.30;117082;1177;69287;-65
2021/11/06 07:46:24;;;;;;;8.20;6.00;;;;;;;10.01;67.75;98432.30;117099;1176;58700;-65
2021/11/06 07:48:53;;;;;;;10.60;5.50;;;;;;;10.01;67.80;98431.06;116981;1177;58704;-64
2021/11/06 07:51:22;;;;;;;6.50;5.20;;;;;;;9.99;67.79;98428.04;117036;1177;70560;-66
2021/11/06 07:53:51;;;;;;;14.50;7.40;;;;;;;9.97;67.93;98422.23;116996;1177;68445;-65
2021/11/06 07:56:22;;;;;;;5.90;4.50;;;;;;;9.92;67.93;98420.73;116993;1177;69691;-65
2021/11/06 07:59:02;;;;;;;6.30;4.40;;;;;;;9.97;68.07;98423.45;116586;1180;58786;-65
2021/11/06 08:01:37;;;;;;;9.60;6.40;;;;;;;9.99;67.86;98426.30;116561;1177;58785;-65
2021/11/06 08:04:22;;;;;;;5.30;4.20;;;;;;;10.00;67.66;98425.52;116809;1177;70349;-64
2021/11/06 08:07:10;;;;;;;6.90;4.10;;;;;;;10.05;67.79;98424.58;116825;1180;68413;-64
2021/11/06 08:09:53;;;;;;;5.40;3.90;;;;;;;10.07;67.69;98429.99;116871;1178;69292;-66
2021/11/06 08:12:40;;;;;;;6.40;5.20;;;;;;;10.12;66.83;98424.88;116892;1174;58791;-65
2021/11/06 08:15:16;;;;;;;5.30;4.20;;;;;;;10.15;66.41;98426.09;116548;1177;58736;-64
2021/11/06 08:17:46;;;;;;;5.50;3.70;;;;;;;10.24;66.86;98417.61;116770;1177;70450;-64
2021/11/06 08:20:22;;;;;;;6.20;5.60;;;;;;;10.30;65.84;98420.63;117015;1176;68779;-66
2021/11/06 08:22:58;;;;;;;7.70;6.00;;;;;;;10.26;65.28;98434.25;116904;1177;68254;-64
2021/11/06 08:25:31;;;;;;;4.00;3.50;;;;;;;10.35;65.44;98438.46;116786;1179;58732;-64
2021/11/06 08:28:05;;;;;;;7.90;4.70;;;;;;;10.41;64.96;98438.99;116703;1177;58749;-63
2021/11/06 08:30:34;;;;;;;8.20;6.50;;;;;;;10.53;64.97;98439.20;116929;1177;70532;-66
2021/11/06 08:33:03;;;;;;;7.60;6.00;;;;;;;10.38;63.45;98446.64;116980;1177;68138;-65
2021/11/06 08:35:32;;;;;;;5.90;3.80;;;;;;;10.49;63.69;98447.27;116948;1177;69001;-64
2021/11/06 08:38:02;;;;;;;5.20;4.00;;;;;;;10.67;64.61;98445.88;117031;1177;59155;-65
2021/11/06 08:40:32;;;;;;;4.70;3.80;;;;;;;10.84;64.44;98445.60;117032;1177;58707;-64
2021/11/06 08:43:01;;;;;;;8.10;6.50;;;;;;;11.01;64.29;98439.75;116937;1177;70331;-64
2021/11/06 08:45:31;;;;;;;6.30;4.50;;;;;;;11.09;62.70;98438.39;116889;1177;68410;-64
2021/11/06 08:48:00;;;;;;;8.20;5.10;;;;;;;11.20;63.74;98450.48;116806;1177;69692;-65
2021/11/06 08:50:29;;;;;;;6.10;4.50;;;;;;;11.28;61.90;98453.73;117024;1177;58720;-65
2021/11/06 08:52:59;;;;;;;6.00;5.30;;;;;;;11.34;62.19;98461.05;117057;1177;58739;-66
2021/11/06 08:55:30;;;;;;;8.50;6.70;;;;;;;11.36;61.01;98460.38;116786;1177;70681;-65
2021/11/06 08:58:01;;;;;;;7.90;5.80;;;;;;;11.42;61.59;98460.18;116873;1179;69016;-64
2021/11/06 09:00:37;;;;;;;7.50;5.20;;;;;;;11.56;62.20;98467.73;116815;1177;69160;-64
2021/11/06 09:03:16;;;;;;;6.60;4.90;;;;;;;11.75;62.39;98471.47;117000;1177;58723;-63
2021/11/06 09:05:51;;;;;;;9.80;6.60;;;;;;;12.08;60.89;98466.29;116982;1176;58736;-63
2021/11/06 09:08:31;;;;;;;5.40;4.80;;;;;;;13.03;60.20;98464.92;116858;1177;69927;-64
2021/11/06 09:11:06;;;;;;;6.40;4.70;;;;;;;14.09;57.91;98465.42;116739;1177;67866;-63
2021/11/06 09:13:36;;;;;;;8.20;6.40;;;;;;;14.51;54.44;98472.48;116880;1177;69794;-65
2021/11/06 09:16:10;;;;;;;11.10;6.40;;;;;;;14.44;54.57;98476.64;116986;1177;59117;-63
2021/11/06 09:18:40;;;;;;;6.40;4.90;;;;;;;14.45;55.05;98480.41;117013;1177;58748;-65
2021/11/06 09:21:15;;;;;;;7.40;6.10;;;;;;;14.51;55.24;98485.64;116978;1176;70938;-64
2021/11/06 09:23:47;;;;;;;7.50;5.90;;;;;;;14.35;54.08;98489.54;117040;1177;68257;-65
2021/11/06 09:26:20;;;;;;;5.80;4.60;;;;;;;14.16;54.64;98491.58;116830;1177;69846;-64
2021/11/06 09:28:49;;;;;;;7.40;5.80;;;;;;;14.14;55.50;98494.21;117027;1177;58760;-65
2021/11/06 09:31:18;;;;;;;8.10;6.30;;;;;;;14.18;56.15;98497.90;117121;1177;58745;-65
2021/11/06 09:33:48;;;;;;;8.00;5.20;;;;;;;14.06;55.44;98501.27;116956;1176;70802;-65
2021/11/06 09:36:30;;;;;;;8.40;5.50;;;;;;;14.27;55.62;98501.15;116628;1177;68581;-66
2021/11/06 09:39:18;;;;;;;6.00;4.50;;;;;;;13.95;55.37;98503.57;116655;1180;69276;-65
2021/11/06 09:42:06;;;;;;;6.20;5.00;;;;;;;14.26;54.94;98500.85;116718;1177;58760;-65
2021/11/06 09:44:51;;;;;;;5.40;4.50;;;;;;;14.53;54.41;98497.02;116644;1177;59144;-66
2021/11/06 09:47:45;;;;;;;7.90;5.80;;;;;;;14.73;53.97;98501.59;116581;1177;70542;-66
2021/11/06 09:50:25;;;;;;;4.80;4.00;;;;;;;14.85;53.09;98498.79;116576;1178;68809;-64
2021/11/06 09:53:04;;;;;;;6.00;5.00;;;;;;;15.01;52.38;98484.43;116865;1177;69438;-65
2021/11/06 09:55:48;;;;;;;6.70;5.30;;;;;;;15.13;51.53;98479.86;116904;1177;58729;-64
2021/11/06 09:58:25;;;;;;;9.50;7.30;;;;;;;15.16;51.08;98475.41;116893;1177;58730;-65
2021/11/06 10:00:57;;;;;;;8.10;7.10;;;;;;;14.35;51.56;98476.38;116868;1177;70449;-65
2021/11/06 10:03:40;;;;;;;11.00;8.10;;;;;;;13.98;52.57;98476.53;116800;1177;68528;-65
2021/11/06 10:06:24;;;;;;;7.20;5.80;;;;;;;14.34;52.59;98467.35;116770;1178;68550;-65
2021/11/06 10:09:13;;;;;;;6.70;5.30;;;;;;;14.87;51.72;98466.38;116758;1177;58736;-65
2021/11/06 10:12:07;;;;;;;9.40;7.10;;;;;;;15.22;50.32;98466.04;116912;1177;58800;-63
2021/11/06 10:14:45;;;;;;;10.60;8.40;;;;;;;15.07;49.86;98461.00;116871;1177;69585;-65
2021/11/06 10:17:42;;;;;;;10.10;7.30;;;;;;;15.23;49.36;98451.70;116703;1178;67895;-65
2021/11/06 10:20:33;;;;;;;10.00;7.80;;;;;;;15.61;49.19;98465.34;116917;1177;68231;-65
2021/11/06 10:23:18;;;;;;;7.00;5.70;;;;;;;15.76;47.46;98472.61;116838;1177;58732;-65
2021/11/06 10:26:24;;;;;;;7.30;6.00;;;;;;;17.02;47.48;98468.77;116872;1178;58796;-65
2021/11/06 10:29:15;;;;;;;7.50;5.90;;;;;;;18.29;44.08;98452.88;116982;1177;69837;-66
2021/11/06 10:32:05;;;;;;;10.40;8.00;;;;;;;18.93;42.82;98451.27;116555;1179;67526;-67
2021/11/06 10:34:45;;;;;;;8.50;7.60;;;;;;;18.43;40.82;98455.52;116935;1177;69303;-65
2021/11/06 10:37:21;;;;;;;7.60;5.50;;;;;;;17.86;41.55;98458.00;116577;1176;58761;-64
2021/11/06 10:39:59;;;;;;;6.40;5.20;;;;;;;17.99;42.13;98461.27;116832;1178;58819;-64
2021/11/06 10:42:51;;;;;;;6.40;4.80;;;;;;;17.98;43.81;98459.49;116804;1177;69941;-64
2021/11/06 10:45:22;;;;;;;9.10;8.10;;;;;;;18.00;43.98;98454.16;116987;1177;68977;-64
2021/11/06 10:47:57;;;;;;;9.00;6.70;;;;;;;17.84;44.04;98454.88;116757;1177;69823;-65
2021/11/06 10:50:35;;;;;;;7.10;5.90;;;;;;;17.44;44.86;98446.06;116948;1176;58967;-65
2021/11/06 10:53:05;;;;;;;8.30;6.30;;;;;;;17.27;45.24;98437.28;116950;1177;58734;-63
2021/11/06 10:55:37;;;;;;;7.70;5.70;;;;;;;17.17;45.70;98431.63;116970;1177;69877;-64
2021/11/06 10:58:20;;;;;;;5.70;4.60;;;;;;;17.02;45.52;98427.61;116907;1174;68162;-66
2021/11/06 11:00:57;;;;;;;8.00;6.00;;;;;;;16.83;46.20;98423.38;116813;1177;69322;-64
2021/11/06 11:03:29;;;;;;;7.70;5.10;;;;;;;16.76;46.32;98424.48;116842;1177;58734;-65
2021/11/06 11:06:17;;;;;;;9.10;6.60;;;;;;;16.75;46.31;98430.33;116930;1177;58726;-66
2021/11/06 11:09:14;;;;;;;7.60;6.10;;;;;;;16.83;45.82;98432.16;116771;1178;70760;-65
2021/11/06 11:11:51;;;;;;;;;;;;;;;16.89;46.01;98433.05;116571;1179;68842;-66
2021/11/06 11:14:40;;;;;;;7.20;5.20;;;;;;;16.95;45.84;98431.38;116517;1179;68754;-64
2021/11/06 11:17:42;;;;;;;5.80;4.80;;;;;;;16.88;45.15;98421.91;116675;1177;58788;-65
2021/11/06 11:20:27;;;;;;;6.30;4.40;;;;;;;16.93;45.67;98417.72;116704;1177;58687;-64
2021/11/06 11:23:15;;;;;;;6.50;5.00;;;;;;;16.96;46.10;98421.20;116928;1177;69365;-64
2021/11/06 11:25:44;;;;;;;5.50;4.50;;;;;;;16.99;45.76;98426.98;116864;1177;68154;-65
2021/11/06 11:28:15;;;;;;;6.00;4.30;;;;;;;17.11;45.85;98431.95;116835;1179;70421;-65
2021/11/06 11:30:44;;;;;;;5.90;4.40;;;;;;;17.30;45.69;98432.14;116825;1174;58807;-65
2021/11/06 11:33:35;;;;;;;6.50;5.40;;;;;;;17.55;44.62;98426.66;116819;1176;58761;-65
2021/11/06 11:36:06;;;;;;;5.80;4.60;;;;;;;17.83;44.08;98421.10;116888;1177;70320;-65
2021/11/06 11:38:37;;;;;;;6.50;5.30;;;;;;;18.14;43.67;98410.07;116926;1177;68309;-65
2021/11/06 11:41:43;;;;;;;8.60;5.50;;;;;;;18.11;42.77;98399.80;116993;1177;69469;-65
2021/11/06 11:44:49;;;;;;;6.10;5.50;;;;;;;17.79;43.30;98399.89;116731;1178;58734;-65
2021/11/06 11:47:31;;;;;;;5.20;4.40;;;;;;;17.66;43.71;98402.09;116796;1179;58711;-65
2021/11/06 11:50:26;;;;;;;7.10;5.90;;;;;;;17.44;43.55;98399.20;116639;1179;70584;-66
2021/11/06 11:52:59;;;;;;;5.80;5.00;;;;;;;17.08;44.62;98398.58;116699;1177;67799;-64
2021/11/06 11:55:42;;;;;;;5.20;4.10;;;;;;;16.94;45.14;98397.23;116783;1177;69023;-64
2021/11/06 11:58:22;;;;;;;5.70;4.70;;;;;;;16.95;45.40;98396.17;116770;1177;58732;-64